TimeCST,TemperatureF,Dew PointF,Humidity,Sea Level PressureIn,VisibilityMPH,Wind Direction,Wind SpeedMPH,Gust SpeedMPH,PrecipitationIn,Events,Conditions,WindDirDegrees,DateUTC
12:53 AM,59.0,51.1,75,29.67,10.0,South,16.1,24.2,N/A,,Clear,170,2012-12-03 06:53:00
1:53 AM,60.1,53.1,78,29.64,10.0,South,17.3,26.5,N/A,,Clear,180,2012-12-03 07:53:00
2:53 AM,61.0,54.0,78,29.62,10.0,South,16.1,25.3,N/A,,Clear,180,2012-12-03 08:53:00
3:53 AM,62.1,54.0,75,29.60,10.0,South,17.3,27.6,N/A,,Clear,180,2012-12-03 09:53:00
4:53 AM,60.1,53.1,78,29.60,10.0,South,15.0,23.0,N/A,,Clear,180,2012-12-03 10:53:00
5:53 AM,59.0,52.0,78,29.61,10.0,South,12.7,26.5,N/A,,Clear,190,2012-12-03 11:53:00
6:53 AM,57.9,51.1,78,29.62,10.0,South,15.0,-,N/A,,Clear,190,2012-12-03 12:53:00
7:53 AM,57.0,48.9,74,29.67,10.0,SSW,13.8,-,N/A,,Clear,210,2012-12-03 13:53:00
8:53 AM,59.0,48.2,67,29.70,10.0,SW,9.2,-,N/A,,Clear,230,2012-12-03 14:53:00
9:53 AM,62.1,41.0,46,29.74,10.0,West,15.0,-,N/A,,Clear,280,2012-12-03 15:53:00
10:53 AM,61.0,35.1,38,29.78,10.0,NW,11.5,-,N/A,,Clear,310,2012-12-03 16:53:00
11:53 AM,60.1,32.0,35,29.80,10.0,NW,12.7,-,N/A,,Clear,310,2012-12-03 17:53:00
12:53 PM,60.1,39.0,46,29.83,10.0,NNW,18.4,-,N/A,,Clear,340,2012-12-03 18:53:00
1:53 PM,61.0,39.0,44,29.86,10.0,North,20.7,31.1,N/A,,Clear,10,2012-12-03 19:53:00
2:53 PM,64.0,41.0,43,29.86,10.0,North,21.9,27.6,N/A,,Clear,360,2012-12-03 20:53:00
3:53 PM,63.0,39.0,41,29.89,10.0,North,21.9,27.6,N/A,,Clear,10,2012-12-03 21:53:00
4:53 PM,60.1,37.9,44,29.94,10.0,North,16.1,-,N/A,,Clear,360,2012-12-03 22:53:00
5:53 PM,55.0,37.9,53,29.99,10.0,North,10.4,-,N/A,,Clear,350,2012-12-03 23:53:00
6:53 PM,52.0,37.9,59,30.02,10.0,North,6.9,-,N/A,,Clear,350,2012-12-04 00:53:00
7:53 PM,52.0,37.0,57,30.05,10.0,North,8.1,-,N/A,,Clear,350,2012-12-04 01:53:00
8:53 PM,48.9,35.1,59,30.07,10.0,North,8.1,-,N/A,,Clear,350,2012-12-04 02:53:00
9:53 PM,46.9,33.1,59,30.09,10.0,NNW,6.9,-,N/A,,Clear,330,2012-12-04 03:53:00
10:53 PM,44.1,32.0,63,30.12,10.0,NNW,9.2,-,N/A,,Clear,330,2012-12-04 04:53:00
11:53 PM,41.0,30.2,65,30.13,10.0,NW,8.1,-,N/A,,Clear,320,2012-12-04 05:53:00